| time (UTC) | temp C | wind direction | speed KPH | gust KPH | rain 1hr cm | rain 24hr cm | rain mn cm | humidity % | barometer mb |
| 20260906233802 | 22 | 215 | 20.9 | 24.1 | 0.00 | 0.00 | 0.00 | 35 | 1030.8 |
| 20260906233256 | 20 | 219 | 12.9 | 29.0 | 0.00 | 0.00 | 0.00 | 37 | 1031.1 |
| 20260906232751 | 20 | 237 | 17.7 | 30.6 | 0.00 | 0.00 | 0.00 | 38 | 1031.0 |
| 20260906232245 | 20 | 245 | 17.7 | 35.4 | 0.00 | 0.00 | 0.00 | 37 | 1031.0 |
| 20260906231740 | 21 | 234 | 29.0 | 30.6 | 0.00 | 0.00 | 0.00 | 37 | 1031.0 |
| 20260906231236 | 21 | 223 | 17.7 | 30.6 | 0.00 | 0.00 | 0.00 | 37 | 1030.8 |
| 20260906230735 | 21 | 220 | 17.7 | 40.2 | 0.00 | 0.00 | 0.00 | 37 | 1031.0 |
| 20260906230229 | 21 | 226 | 25.7 | 25.7 | 0.00 | 0.00 | 0.00 | 36 | 1031.2 |
| 20260906225728 | 20 | 237 | 11.3 | 33.8 | 0.00 | 0.00 | 0.00 | 38 | 1031.2 |
| 20260906225224 | 20 | 208 | 8.0 | 25.7 | 0.00 | 0.00 | 0.00 | 38 | 1031.1 |
| 20260906224719 | 20 | 202 | 17.7 | 22.5 | 0.00 | 0.00 | 0.00 | 37 | 1031.1 |
| 20260906224216 | 20 | 217 | 8.0 | 35.4 | 0.00 | 0.00 | 0.00 | 37 | 1031.0 |
| 20260906223712 | 20 | 223 | 3.2 | 24.1 | 0.00 | 0.00 | 0.00 | 38 | 1031.0 |
| 20260906223207 | 21 | 221 | 16.1 | 24.1 | 0.00 | 0.00 | 0.00 | 38 | 1031.1 |
| 20260906222705 | 21 | 221 | 6.4 | 27.4 | 0.00 | 0.00 | 0.00 | 37 | 1031.0 |
| 20260906222204 | 21 | 203 | 9.7 | 27.4 | 0.00 | 0.00 | 0.00 | 38 | 1031.5 |
| 20260906221702 | 21 | 213 | 12.9 | 33.8 | 0.00 | 0.00 | 0.00 | 37 | 1031.1 |
| 20260906221156 | 21 | 196 | 11.3 | 29.0 | 0.00 | 0.00 | 0.00 | 36 | 1031.4 |
| 20260906220652 | 21 | 211 | 19.3 | 38.6 | 0.00 | 0.00 | 0.00 | 36 | 1031.0 |
| 20260906220148 | 21 | 211 | 16.1 | 32.2 | 0.00 | 0.00 | 0.00 | 36 | 1031.2 |
| 20260906215646 | 21 | 219 | 9.7 | 19.3 | 0.00 | 0.00 | 0.00 | 37 | 1031.1 |
| 20260906215145 | 21 | 216 | 8.0 | 33.8 | 0.00 | 0.00 | 0.00 | 36 | 1031.2 |
| 20260906214644 | 21 | 204 | 16.1 | 27.4 | 0.00 | 0.00 | 0.00 | 35 | 1031.1 |
| 20260906214138 | 22 | 244 | 20.9 | 41.8 | 0.00 | 0.00 | 0.00 | 36 | 1031.2 |
| 20260906213638 | 22 | 218 | 14.5 | 25.7 | 0.00 | 0.00 | 0.00 | 36 | 1031.1 |
| 20260906213132 | 21 | 231 | 25.7 | 33.8 | 0.00 | 0.00 | 0.00 | 36 | 1031.4 |
| 20260906212630 | 21 | 209 | 12.9 | 29.0 | 0.00 | 0.00 | 0.00 | 36 | 1031.2 |
| 20260906212126 | 21 | 209 | 14.5 | 29.0 | 0.00 | 0.00 | 0.00 | 36 | 1031.5 |
| 20260906211625 | 22 | 196 | 22.5 | 35.4 | 0.00 | 0.00 | 0.00 | 35 | 1031.5 |
| 20260906211121 | 22 | 243 | 3.2 | 20.9 | 0.00 | 0.00 | 0.00 | 34 | 1031.4 |
| 20260906210616 | 22 | 226 | 14.5 | 32.2 | 0.00 | 0.00 | 0.00 | 35 | 1031.6 |
| 20260906210111 | 21 | 224 | 17.7 | 37.0 | 0.00 | 0.00 | 0.00 | 35 | 1031.2 |
| 20260906205607 | 22 | 217 | 22.5 | 40.2 | 0.00 | 0.00 | 0.00 | 35 | 1031.5 |
| 20260906205103 | 21 | 231 | 11.3 | 33.8 | 0.00 | 0.00 | 0.00 | 36 | 1031.6 |
| 20260906204602 | 21 | 207 | 22.5 | 40.2 | 0.00 | 0.00 | 0.00 | 35 | 1031.4 |
| 20260906204057 | 22 | 242 | 8.0 | 35.4 | 0.00 | 0.00 | 0.00 | 35 | 1031.6 |
| 20260906203556 | 23 | 237 | 17.7 | 27.4 | 0.00 | 0.00 | 0.00 | 34 | 1031.6 |
| 20260906203051 | 21 | 224 | 11.3 | 30.6 | 0.00 | 0.00 | 0.00 | 36 | 1031.5 |
| 20260906202548 | 22 | 231 | 11.3 | 40.2 | 0.00 | 0.00 | 0.00 | 35 | 1031.4 |
| 20260906202047 | 22 | 221 | 14.5 | 40.2 | 0.00 | 0.00 | 0.00 | 35 | 1031.4 |
| 20260906201542 | 22 | 219 | 9.7 | 40.2 | 0.00 | 0.00 | 0.00 | 34 | 1031.6 |
| 20260906201042 | 26 | 248 | 19.3 | 32.2 | 0.00 | 0.00 | 0.00 | 31 | 1031.6 |
| 20260906200538 | 22 | 239 | 12.9 | 41.8 | 0.00 | 0.00 | 0.00 | 34 | 1031.8 |
| 20260906200033 | 22 | 230 | 20.9 | 33.8 | 0.00 | 0.00 | 0.00 | 35 | 1031.9 |
| 20260906195528 | 22 | 237 | 11.3 | 41.8 | 0.00 | 0.00 | 0.00 | 33 | 1032.0 |
| 20260906195025 | 22 | 193 | 11.3 | 33.8 | 0.00 | 0.00 | 0.00 | 34 | 1032.0 |
| 20260906194521 | 22 | 234 | 22.5 | 45.1 | 0.00 | 0.00 | 0.00 | 36 | 1032.2 |
| 20260906194016 | 22 | 226 | 8.0 | 20.9 | 0.00 | 0.00 | 0.00 | 35 | 1031.9 |
| 20260906193516 | 22 | 230 | 24.1 | 27.4 | 0.00 | 0.00 | 0.00 | 36 | 1032.2 |
| 20260906193011 | 21 | 243 | 8.0 | 20.9 | 0.00 | 0.00 | 0.00 | 37 | 1032.0 |
| 20260906192507 | 21 | 219 | 6.4 | 19.3 | 0.00 | 0.00 | 0.00 | 35 | 1032.2 |
| 20260906192005 | 21 | 246 | 4.8 | 16.1 | 0.00 | 0.00 | 0.00 | 37 | 1032.2 |
| 20260906191501 | 21 | 305 | 9.7 | 20.9 | 0.00 | 0.00 | 0.00 | 36 | 1032.4 |
| 20260906191000 | 20 | 13 | 6.4 | 14.5 | 0.00 | 0.00 | 0.00 | 38 | 1032.7 |
| 20260906190459 | 20 | 211 | 6.4 | 12.9 | 0.00 | 0.00 | 0.00 | 38 | 1032.6 |
| 20260906185954 | 20 | 249 | 8.0 | 11.3 | 0.00 | 0.00 | 0.00 | 38 | 1032.6 |
| 20260906185453 | 20 | 230 | 1.6 | 11.3 | 0.00 | 0.00 | 0.00 | 37 | 1032.6 |
| 20260906184952 | 20 | 297 | 4.8 | 9.7 | 0.00 | 0.00 | 0.00 | 37 | 1032.7 |
| 20260906184448 | 20 | 249 | 8.0 | 11.3 | 0.00 | 0.00 | 0.00 | 38 | 1032.8 |
| 20260906183943 | 20 | 231 | 3.2 | 12.9 | 0.00 | 0.00 | 0.00 | 38 | 1032.8 |
| 20260906183439 | 20 | 307 | 8.0 | 12.9 | 0.00 | 0.00 | 0.00 | 37 | 1032.9 |
| 20260906182934 | 20 | 296 | 3.2 | 11.3 | 0.00 | 0.00 | 0.00 | 37 | 1032.8 |
| 20260906182430 | 20 | 301 | 4.8 | 8.0 | 0.00 | 0.00 | 0.00 | 39 | 1032.8 |
| 20260906181926 | 20 | 312 | 6.4 | 16.1 | 0.00 | 0.00 | 0.00 | 38 | 1032.9 |
| 20260906181421 | 20 | 260 | 6.4 | 16.1 | 0.00 | 0.00 | 0.00 | 38 | 1033.1 |
| 20260906180917 | 20 | 321 | 8.0 | 11.3 | 0.00 | 0.00 | 0.00 | 38 | 1033.2 |
| 20260906180412 | 20 | 331 | 4.8 | 8.0 | 0.00 | 0.00 | 0.00 | 37 | 1033.2 |
| 20260906175909 | 20 | 308 | 4.8 | 16.1 | 0.00 | 0.00 | 0.00 | 37 | 1032.9 |
| 20260906175404 | 20 | 334 | 8.0 | 14.5 | 0.00 | 0.00 | 0.00 | 38 | 1033.2 |
| 20260906174903 | 21 | 315 | 4.8 | 11.3 | 0.00 | 0.00 | 0.00 | 36 | 1033.1 |
| 20260906174403 | 21 | 258 | 4.8 | 14.5 | 0.00 | 0.00 | 0.00 | 36 | 1033.3 |
| 20260906173857 | 20 | 38 | 8.0 | 16.1 | 0.00 | 0.00 | 0.00 | 37 | 1033.3 |
| 20260906173353 | 20 | 333 | 4.8 | 17.7 | 0.00 | 0.00 | 0.00 | 36 | 1033.3 |
| 20260906172852 | 20 | 216 | 6.4 | 19.3 | 0.00 | 0.00 | 0.00 | 35 | 1033.6 |
| 20260906172348 | 20 | 189 | 3.2 | 16.1 | 0.00 | 0.00 | 0.00 | 35 | 1033.5 |
| 20260906171843 | 20 | 95 | 8.0 | 12.9 | 0.00 | 0.00 | 0.00 | 36 | 1033.3 |
| 20260906171338 | 19 | 84 | 4.8 | 19.3 | 0.00 | 0.00 | 0.00 | 36 | 1033.5 |
| 20260906170833 | 19 | 114 | 14.5 | 20.9 | 0.00 | 0.00 | 0.00 | 36 | 1033.7 |
| 20260906170329 | 19 | 88 | 6.4 | 22.5 | 0.00 | 0.00 | 0.00 | 35 | 1033.6 |
| 20260906165826 | 18 | 109 | 11.3 | 16.1 | 0.00 | 0.00 | 0.00 | 36 | 1033.7 |
| 20260906165324 | 17 | 66 | 9.7 | 14.5 | 0.00 | 0.00 | 0.00 | 37 | 1033.7 |
| 20260906164820 | 17 | 115 | 9.7 | 12.9 | 0.00 | 0.00 | 0.00 | 37 | 1034.0 |
| 20260906164319 | 17 | 112 | 6.4 | 17.7 | 0.00 | 0.00 | 0.00 | 37 | 1033.9 |
| 20260906163815 | 17 | 88 | 4.8 | 17.7 | 0.00 | 0.00 | 0.00 | 39 | 1033.7 |
| 20260906163311 | 17 | 124 | 6.4 | 11.3 | 0.00 | 0.00 | 0.00 | 37 | 1033.9 |
| 20260906162809 | 18 | 51 | 6.4 | 9.7 | 0.00 | 0.00 | 0.00 | 36 | 1033.7 |
| 20260906162308 | 17 | 103 | 4.8 | 9.7 | 0.00 | 0.00 | 0.00 | 38 | 1033.6 |
| 20260906161803 | 17 | 127 | 8.0 | 11.3 | 0.00 | 0.00 | 0.00 | 39 | 1033.6 |
| 20260906161302 | 17 | 72 | 12.9 | 12.9 | 0.00 | 0.00 | 0.00 | 39 | 1033.6 |
| 20260906160801 | 17 | 115 | 8.0 | 14.5 | 0.00 | 0.00 | 0.00 | 38 | 1033.9 |
| 20260906160255 | 18 | 161 | 11.3 | 16.1 | 0.00 | 0.00 | 0.00 | 37 | 1033.7 |
| 20260906155753 | 19 | 75 | 4.8 | 16.1 | 0.00 | 0.00 | 0.00 | 37 | 1033.6 |
| 20260906155248 | 18 | 133 | 6.4 | 20.9 | 0.00 | 0.00 | 0.00 | 37 | 1033.5 |
| 20260906154743 | 18 | 141 | 11.3 | 16.1 | 0.00 | 0.00 | 0.00 | 36 | 1033.6 |
| 20260906154239 | 17 | 95 | 12.9 | 16.1 | 0.00 | 0.00 | 0.00 | 37 | 1033.6 |
| 20260906153737 | 16 | 95 | 11.3 | 17.7 | 0.00 | 0.00 | 0.00 | 40 | 1033.3 |
| 20260906153231 | 15 | 79 | 9.7 | 14.5 | 0.00 | 0.00 | 0.00 | 41 | 1033.7 |
| 20260906152727 | 15 | 82 | 6.4 | 16.1 | 0.00 | 0.00 | 0.00 | 40 | 1033.5 |
| 20260906152221 | 15 | 117 | 11.3 | 17.7 | 0.00 | 0.00 | 0.00 | 38 | 1033.6 |
| 20260906151721 | 16 | 100 | 11.3 | 17.7 | 0.00 | 0.00 | 0.00 | 38 | 1033.9 |
| 20260906151217 | 16 | 102 | 6.4 | 16.1 | 0.00 | 0.00 | 0.00 | 37 | 1033.7 |
| 20260906150712 | 15 | 86 | 6.4 | 16.1 | 0.00 | 0.00 | 0.00 | 40 | 1033.7 |
| 20260906150207 | 15 | 58 | 6.4 | 11.3 | 0.00 | 0.00 | 0.00 | 42 | 1033.7 |
| 20260906145706 | 15 | 65 | 9.7 | 11.3 | 0.00 | 0.00 | 0.00 | 40 | 1033.7 |
| 20260906145206 | 15 | 89 | 9.7 | 14.5 | 0.00 | 0.00 | 0.00 | 39 | 1034.0 |
| 20260906144700 | 15 | 96 | 11.3 | 17.7 | 0.00 | 0.00 | 0.00 | 38 | 1034.0 |
| 20260906144155 | 15 | 82 | 14.5 | 17.7 | 0.00 | 0.00 | 0.00 | 39 | 1033.7 |
| 20260906143655 | 15 | 84 | 16.1 | 17.7 | 0.00 | 0.00 | 0.00 | 39 | 1033.7 |
| 20260906143152 | 15 | 88 | 19.3 | 22.5 | 0.00 | 0.00 | 0.00 | 37 | 1033.5 |
| 20260906142652 | 15 | 72 | 14.5 | 20.9 | 0.00 | 0.00 | 0.00 | 39 | 1033.9 |
| 20260906142147 | 15 | 114 | 8.0 | 17.7 | 0.00 | 0.00 | 0.00 | 40 | 1034.0 |
| 20260906141646 | 14 | 93 | 9.7 | 20.9 | 0.00 | 0.00 | 0.00 | 38 | 1033.7 |
| 20260906141141 | 14 | 94 | 17.7 | 17.7 | 0.00 | 0.00 | 0.00 | 38 | 1033.9 |
| 20260906140640 | 13 | 68 | 12.9 | 22.5 | 0.00 | 0.00 | 0.00 | 38 | 1033.7 |
| 20260906140135 | 13 | 84 | 12.9 | 22.5 | 0.00 | 0.00 | 0.00 | 39 | 1034.1 |
| 20260906135632 | 13 | 85 | 9.7 | 17.7 | 0.00 | 0.00 | 0.00 | 40 | 1033.7 |
| 20260906135128 | 12 | 101 | 8.0 | 19.3 | 0.00 | 0.00 | 0.00 | 40 | 1033.7 |
| 20260906134624 | 12 | 70 | 11.3 | 20.9 | 0.00 | 0.00 | 0.00 | 42 | 1034.0 |
| 20260906134119 | 13 | 63 | 3.2 | 8.0 | 0.00 | 0.00 | 0.00 | 42 | 1033.9 |
| 20260906133615 | 12 | 95 | 1.6 | 6.4 | 0.00 | 0.00 | 0.00 | 44 | 1033.6 |
| 20260906133115 | 12 | 87 | 8.0 | 12.9 | 0.00 | 0.00 | 0.00 | 45 | 1033.9 |
| 20260906132610 | 11 | 88 | 11.3 | 11.3 | 0.00 | 0.00 | 0.00 | 46 | 1033.6 |
| 20260906132106 | 10 | 89 | 6.4 | 11.3 | 0.00 | 0.00 | 0.00 | 47 | 1033.7 |
| 20260906131601 | 8 | 92 | 6.4 | 8.0 | 0.00 | 0.00 | 0.00 | 53 | 1033.5 |
| 20260906131056 | 8 | 82 | 8.0 | 9.7 | 0.00 | 0.00 | 0.00 | 53 | 1033.2 |
| 20260906130555 | 8 | 84 | 6.4 | 11.3 | 0.00 | 0.00 | 0.00 | 51 | 1033.5 |
| 20260906130051 | 10 | 101 | 4.8 | 9.7 | 0.00 | 0.00 | 0.00 | 48 | 1033.5 |
| 20260906125548 | 10 | 96 | 11.3 | 16.1 | 0.00 | 0.00 | 0.00 | 45 | 1033.3 |
| 20260906125043 | 10 | 81 | 8.0 | 16.1 | 0.00 | 0.00 | 0.00 | 46 | 1033.1 |
| 20260906124538 | 10 | 83 | 8.0 | 14.5 | 0.00 | 0.00 | 0.00 | 46 | 1033.2 |
| 20260906124033 | 10 | 78 | 8.0 | 20.9 | 0.00 | 0.00 | 0.00 | 45 | 1033.2 |
| 20260906123532 | 10 | 82 | 19.3 | 22.5 | 0.00 | 0.00 | 0.00 | 46 | 1032.9 |
| 20260906123027 | 10 | 69 | 16.1 | 20.9 | 0.00 | 0.00 | 0.00 | 46 | 1033.3 |
| 20260906122521 | 10 | 86 | 14.5 | 16.1 | 0.00 | 0.00 | 0.00 | 47 | 1032.9 |
| 20260906122018 | 10 | 78 | 20.9 | 20.9 | 0.00 | 0.00 | 0.00 | 45 | 1033.1 |
| 20260906121513 | 10 | 85 | 12.9 | 17.7 | 0.00 | 0.00 | 0.00 | 44 | 1032.9 |
| 20260906121009 | 10 | 82 | 8.0 | 19.3 | 0.00 | 0.00 | 0.00 | 43 | 1033.1 |
| 20260906120504 | 10 | 85 | 11.3 | 14.5 | 0.00 | 0.00 | 0.00 | 46 | 1033.1 |
| 20260906120002 | 10 | 104 | 6.4 | 12.9 | 0.00 | 0.00 | 0.00 | 47 | 1033.1 |
| 20260906115456 | 10 | 69 | 9.7 | 14.5 | 0.00 | 0.00 | 0.00 | 48 | 1032.9 |
| 20260906114956 | 10 | 98 | 11.3 | 14.5 | 0.00 | 0.00 | 0.00 | 47 | 1033.2 |
| 20260906114450 | 10 | 97 | 4.8 | 11.3 | 0.00 | 0.00 | 0.00 | 45 | 1033.1 |
| 20260906113947 | 10 | 91 | 4.8 | 9.7 | 0.00 | 0.00 | 0.00 | 46 | 1032.9 |
| 20260906113445 | 10 | 75 | 8.0 | 14.5 | 0.00 | 0.00 | 0.00 | 44 | 1032.9 |
| 20260906112941 | 10 | 105 | 11.3 | 11.3 | 0.00 | 0.00 | 0.00 | 40 | 1032.9 |
| 20260906112436 | 10 | 83 | 8.0 | 12.9 | 0.00 | 0.00 | 0.00 | 41 | 1032.9 |
| 20260906111932 | 10 | 71 | 11.3 | 12.9 | 0.00 | 0.00 | 0.00 | 42 | 1032.9 |
| 20260906111431 | 10 | 79 | 11.3 | 12.9 | 0.00 | 0.00 | 0.00 | 41 | 1032.8 |
| 20260906110926 | 10 | 85 | 8.0 | 11.3 | 0.00 | 0.00 | 0.00 | 43 | 1033.1 |
| 20260906110422 | 9 | 62 | 6.4 | 8.0 | 0.00 | 0.00 | 0.00 | 47 | 1033.3 |
| 20260906105920 | 10 | 43 | 3.2 | 4.8 | 0.00 | 0.00 | 0.00 | 44 | 1033.2 |
| 20260906105416 | 10 | 77 | 4.8 | 6.4 | 0.00 | 0.00 | 0.00 | 48 | 1032.9 |
| 20260906104912 | 10 | 86 | 4.8 | 8.0 | 0.00 | 0.00 | 0.00 | 50 | 1032.9 |
| 20260906104410 | 10 | 77 | 4.8 | 8.0 | 0.00 | 0.00 | 0.00 | 49 | 1032.9 |
| 20260906103910 | 10 | 100 | 3.2 | 8.0 | 0.00 | 0.00 | 0.00 | 48 | 1032.9 |
| 20260906103408 | 10 | 81 | 4.8 | 9.7 | 0.00 | 0.00 | 0.00 | 48 | 1032.8 |
| 20260906102904 | 10 | 78 | 6.4 | 9.7 | 0.00 | 0.00 | 0.00 | 46 | 1033.1 |
| 20260906102403 | 10 | 72 | 8.0 | 9.7 | 0.00 | 0.00 | 0.00 | 47 | 1032.9 |
| 20260906101858 | 10 | 87 | 6.4 | 9.7 | 0.00 | 0.00 | 0.00 | 46 | 1032.9 |
| 20260906101353 | 10 | 83 | 4.8 | 12.9 | 0.00 | 0.00 | 0.00 | 48 | 1032.9 |
| 20260906100849 | 10 | 82 | 6.4 | 11.3 | 0.00 | 0.00 | 0.00 | 52 | 1032.9 |
| 20260906100348 | 10 | 81 | 8.0 | 11.3 | 0.00 | 0.00 | 0.00 | 53 | 1032.8 |
| 20260906095843 | 10 | 88 | 6.4 | 9.7 | 0.00 | 0.00 | 0.00 | 52 | 1032.9 |
| 20260906095339 | 10 | 57 | 6.4 | 11.3 | 0.00 | 0.00 | 0.00 | 51 | 1033.2 |
| 20260906094838 | 10 | 70 | 6.4 | 11.3 | 0.00 | 0.00 | 0.00 | 54 | 1032.9 |
| 20260906094333 | 10 | 85 | 6.4 | 9.7 | 0.00 | 0.00 | 0.00 | 53 | 1033.1 |
| 20260906093829 | 10 | 108 | 6.4 | 17.7 | 0.00 | 0.00 | 0.00 | 51 | 1032.9 |
| 20260906093325 | 9 | 108 | 6.4 | 11.3 | 0.00 | 0.00 | 0.00 | 54 | 1033.1 |
| 20260906092819 | 10 | 61 | 0.0 | 6.4 | 0.00 | 0.00 | 0.00 | 51 | 1033.1 |
| 20260906092314 | 11 | 85 | 11.3 | 20.9 | 0.00 | 0.00 | 0.00 | 50 | 1032.7 |
| 20260906091809 | 11 | 85 | 17.7 | 17.7 | 0.00 | 0.00 | 0.00 | 49 | 1033.2 |
| 20260906091305 | 11 | 79 | 11.3 | 14.5 | 0.00 | 0.00 | 0.00 | 50 | 1033.1 |
| 20260906090802 | 11 | 70 | 9.7 | 17.7 | 0.00 | 0.00 | 0.00 | 51 | 1033.2 |
| 20260906090301 | 11 | 74 | 8.0 | 12.9 | 0.00 | 0.00 | 0.00 | 51 | 1032.9 |
| 20260906085801 | 11 | 73 | 6.4 | 12.9 | 0.00 | 0.00 | 0.00 | 52 | 1032.9 |
| 20260906085259 | 11 | 83 | 6.4 | 14.5 | 0.00 | 0.00 | 0.00 | 51 | 1033.2 |
| 20260906084754 | 10 | 76 | 6.4 | 9.7 | 0.00 | 0.00 | 0.00 | 53 | 1033.2 |
| 20260906084248 | 10 | 68 | 9.7 | 9.7 | 0.00 | 0.00 | 0.00 | 56 | 1033.1 |
| 20260906083743 | 10 | 87 | 6.4 | 8.0 | 0.00 | 0.00 | 0.00 | 55 | 1032.9 |
| 20260906083239 | 10 | 66 | 4.8 | 9.7 | 0.00 | 0.00 | 0.00 | 54 | 1033.1 |
| 20260906082733 | 11 | 97 | 6.4 | 11.3 | 0.00 | 0.00 | 0.00 | 50 | 1033.5 |
| 20260906082229 | 11 | 70 | 8.0 | 16.1 | 0.00 | 0.00 | 0.00 | 50 | 1033.3 |
| 20260906081725 | 11 | 109 | 6.4 | 16.1 | 0.00 | 0.00 | 0.00 | 51 | 1033.5 |
| 20260906081219 | 10 | 53 | 6.4 | 11.3 | 0.00 | 0.00 | 0.00 | 53 | 1033.1 |
| 20260906080716 | 11 | 112 | 11.3 | 14.5 | 0.00 | 0.00 | 0.00 | 51 | 1033.2 |
| 20260906080212 | 11 | 81 | 12.9 | 22.5 | 0.00 | 0.00 | 0.00 | 52 | 1033.2 |
| 20260906075706 | 11 | 66 | 11.3 | 20.9 | 0.00 | 0.00 | 0.00 | 50 | 1033.3 |
| 20260906075201 | 11 | 69 | 9.7 | 19.3 | 0.00 | 0.00 | 0.00 | 54 | 1033.2 |
| 20260906074656 | 11 | 71 | 14.5 | 19.3 | 0.00 | 0.00 | 0.00 | 54 | 1033.3 |
| 20260906074155 | 11 | 82 | 14.5 | 19.3 | 0.00 | 0.00 | 0.00 | 52 | 1033.2 |
| 20260906073650 | 11 | 88 | 11.3 | 17.7 | 0.00 | 0.00 | 0.00 | 51 | 1033.5 |
| 20260906073145 | 11 | 67 | 16.1 | 17.7 | 0.00 | 0.00 | 0.00 | 51 | 1033.3 |
| 20260906072641 | 11 | 100 | 11.3 | 16.1 | 0.00 | 0.00 | 0.00 | 52 | 1033.3 |
| 20260906072136 | 11 | 76 | 16.1 | 17.7 | 0.00 | 0.00 | 0.00 | 53 | 1033.3 |
| 20260906071633 | 11 | 76 | 9.7 | 16.1 | 0.00 | 0.00 | 0.00 | 53 | 1033.6 |
| 20260906071132 | 10 | 79 | 8.0 | 12.9 | 0.00 | 0.00 | 0.00 | 55 | 1033.5 |
| 20260906070629 | 10 | 61 | 6.4 | 8.0 | 0.00 | 0.00 | 0.00 | 54 | 1033.5 |
| 20260906070125 | 11 | 62 | 6.4 | 6.4 | 0.00 | 0.00 | 0.00 | 53 | 1033.7 |
| 20260906065624 | 11 | 59 | 4.8 | 9.7 | 0.00 | 0.00 | 0.00 | 50 | 1033.6 |
| 20260906065120 | 10 | 69 | 11.3 | 11.3 | 0.00 | 0.00 | 0.00 | 53 | 1033.7 |
| 20260906064615 | 11 | 72 | 6.4 | 9.7 | 0.00 | 0.00 | 0.00 | 52 | 1033.6 |
| 20260906064110 | 11 | 48 | 6.4 | 9.7 | 0.00 | 0.00 | 0.00 | 50 | 1033.6 |
| 20260906063605 | 11 | 52 | 8.0 | 9.7 | 0.00 | 0.00 | 0.00 | 53 | 1033.6 |
| 20260906063101 | 10 | 31 | 8.0 | 8.0 | 0.00 | 0.00 | 0.00 | 55 | 1033.6 |
| 20260906062557 | 10 | 15 | 4.8 | 9.7 | 0.00 | 0.00 | 0.00 | 56 | 1033.5 |
| 20260906062055 | 10 | 12 | 4.8 | 6.4 | 0.00 | 0.00 | 0.00 | 55 | 1033.5 |
| 20260906061552 | 11 | 28 | 4.8 | 6.4 | 0.00 | 0.00 | 0.00 | 51 | 1033.3 |
| 20260906061051 | 11 | 19 | 4.8 | 4.8 | 0.00 | 0.00 | 0.00 | 51 | 1033.5 |
| 20260906060548 | 12 | 54 | 4.8 | 4.8 | 0.00 | 0.00 | 0.00 | 47 | 1033.5 |
| 20260906060045 | 12 | 68 | 4.8 | 6.4 | 0.00 | 0.00 | 0.00 | 48 | 1033.3 |
| 20260906055540 | 12 | 84 | 3.2 | 3.2 | 0.00 | 0.00 | 0.00 | 48 | 1033.6 |
| 20260906055035 | 12 | 40 | 1.6 | 4.8 | 0.00 | 0.00 | 0.00 | 48 | 1033.5 |
| 20260906054530 | 12 | 73 | 3.2 | 4.8 | 0.00 | 0.00 | 0.00 | 49 | 1033.5 |
| 20260906054025 | 12 | 64 | 3.2 | 4.8 | 0.00 | 0.00 | 0.00 | 50 | 1033.5 |
| 20260906053522 | 12 | 74 | 3.2 | 4.8 | 0.00 | 0.00 | 0.00 | 51 | 1033.5 |
| 20260906053017 | 12 | 84 | 4.8 | 8.0 | 0.00 | 0.00 | 0.00 | 51 | 1033.7 |
| 20260906052512 | 12 | 62 | 4.8 | 8.0 | 0.00 | 0.00 | 0.00 | 52 | 1033.3 |
| 20260906052010 | 11 | 62 | 8.0 | 8.0 | 0.00 | 0.00 | 0.00 | 53 | 1033.7 |
| 20260906051505 | 11 | 54 | 4.8 | 6.4 | 0.00 | 0.00 | 0.00 | 54 | 1033.3 |
| 20260906051000 | 12 | 83 | 4.8 | 8.0 | 0.00 | 0.00 | 0.00 | 52 | 1033.6 |
| 20260906050500 | 12 | 62 | 6.4 | 8.0 | 0.00 | 0.00 | 0.00 | 52 | 1033.7 |
| 20260906045954 | 10 | 10 | 4.8 | 9.7 | 0.00 | 0.00 | 0.00 | 58 | 1033.5 |
| 20260906045453 | 10 | 43 | 8.0 | 11.3 | 0.00 | 0.00 | 0.00 | 58 | 1033.6 |
| 20260906044949 | 12 | 71 | 6.4 | 9.7 | 0.00 | 0.00 | 0.00 | 52 | 1033.7 |
| 20260906044444 | 11 | 64 | 8.0 | 8.0 | 0.00 | 0.00 | 0.00 | 53 | 1033.6 |
| 20260906043939 | 12 | 66 | 4.8 | 6.4 | 0.00 | 0.00 | 0.00 | 52 | 1033.2 |
| 20260906043435 | 12 | 91 | 4.8 | 6.4 | 0.00 | 0.00 | 0.00 | 50 | 1033.6 |
| 20260906042931 | 12 | 72 | 3.2 | 4.8 | 0.00 | 0.00 | 0.00 | 50 | 1033.7 |
| 20260906042430 | 12 | 111 | 3.2 | 4.8 | 0.00 | 0.00 | 0.00 | 51 | 1033.3 |
| 20260906041924 | 12 | 86 | 1.6 | 4.8 | 0.00 | 0.00 | 0.00 | 50 | 1033.6 |
| 20260906041421 | 12 | 115 | 3.2 | 4.8 | 0.00 | 0.00 | 0.00 | 50 | 1033.5 |
| 20260906040920 | 12 | 94 | 4.8 | 8.0 | 0.00 | 0.00 | 0.00 | 51 | 1033.3 |
| 20260906040416 | 12 | 52 | 4.8 | 4.8 | 0.00 | 0.00 | 0.00 | 51 | 1033.5 |
| 20260906035911 | 12 | 50 | 1.6 | 4.8 | 0.00 | 0.00 | 0.00 | 49 | 1033.3 |
| 20260906035406 | 13 | 92 | 4.8 | 4.8 | 0.00 | 0.00 | 0.00 | 45 | 1033.6 |
| 20260906034901 | 13 | 201 | 3.2 | 8.0 | 0.00 | 0.00 | 0.00 | 44 | 1033.5 |
| 20260906034356 | 13 | 262 | 3.2 | 4.8 | 0.00 | 0.00 | 0.00 | 46 | 1033.5 |
| 20260906033852 | 12 | 147 | 0.0 | 3.2 | 0.00 | 0.00 | 0.00 | 49 | 1033.3 |
| 20260906033351 | 12 | 40 | 1.6 | 3.2 | 0.00 | 0.00 | 0.00 | 50 | 1033.3 |
| 20260906032847 | 12 | 58 | 3.2 | 4.8 | 0.00 | 0.00 | 0.00 | 50 | 1033.3 |
| 20260906032343 | 12 | 98 | 1.6 | 6.4 | 0.00 | 0.00 | 0.00 | 51 | 1033.3 |
| 20260906031838 | 12 | 141 | 0.0 | 6.4 | 0.00 | 0.00 | 0.00 | 49 | 1033.2 |
| 20260906031333 | 12 | 107 | 0.0 | 4.8 | 0.00 | 0.00 | 0.00 | 50 | 1033.2 |
| 20260906030833 | 13 | 102 | 3.2 | 4.8 | 0.00 | 0.00 | 0.00 | 48 | 1033.1 |
| 20260906030329 | 14 | 50 | 0.0 | 8.0 | 0.00 | 0.00 | 0.00 | 45 | 1033.1 |
| 20260906025823 | 15 | 53 | 4.8 | 8.0 | 0.00 | 0.00 | 0.00 | 43 | 1032.9 |
| 20260906025317 | 15 | 245 | 3.2 | 14.5 | 0.00 | 0.00 | 0.00 | 43 | 1033.2 |
| 20260906024816 | 15 | 292 | 4.8 | 14.5 | 0.00 | 0.00 | 0.00 | 41 | 1032.8 |
| 20260906024315 | 16 | 251 | 6.4 | 17.7 | 0.00 | 0.00 | 0.00 | 40 | 1032.8 |
| 20260906023811 | 15 | 276 | 4.8 | 12.9 | 0.00 | 0.00 | 0.00 | 41 | 1032.7 |
| 20260906023306 | 16 | 252 | 11.3 | 16.1 | 0.00 | 0.00 | 0.00 | 41 | 1032.7 |
| 20260906022802 | 16 | 275 | 6.4 | 14.5 | 0.00 | 0.00 | 0.00 | 41 | 1032.6 |
| 20260906022257 | 15 | 275 | 3.2 | 9.7 | 0.00 | 0.00 | 0.00 | 42 | 1032.7 |
| 20260906021753 | 15 | 326 | 3.2 | 4.8 | 0.00 | 0.00 | 0.00 | 43 | 1032.8 |
| 20260906021252 | 16 | 335 | 4.8 | 6.4 | 0.00 | 0.00 | 0.00 | 42 | 1032.6 |
| 20260906020747 | 16 | 14 | 1.6 | 3.2 | 0.00 | 0.00 | 0.00 | 41 | 1032.6 |
| 20260906020246 | 16 | 285 | 3.2 | 4.8 | 0.00 | 0.00 | 0.00 | 40 | 1032.4 |
| 20260906015741 | 17 | 259 | 3.2 | 8.0 | 0.00 | 0.00 | 0.00 | 40 | 1032.2 |
| 20260906015239 | 17 | 318 | 3.2 | 4.8 | 0.00 | 0.00 | 0.00 | 39 | 1032.2 |
| 20260906014734 | 17 | 273 | 4.8 | 16.1 | 0.00 | 0.00 | 0.00 | 38 | 1032.3 |
| 20260906014230 | 17 | 273 | 8.0 | 14.5 | 0.00 | 0.00 | 0.00 | 38 | 1032.2 |
| 20260906013726 | 17 | 242 | 11.3 | 14.5 | 0.00 | 0.00 | 0.00 | 38 | 1032.3 |
| 20260906013226 | 17 | 276 | 4.8 | 11.3 | 0.00 | 0.00 | 0.00 | 38 | 1032.3 |
| 20260906012721 | 18 | 250 | 9.7 | 16.1 | 0.00 | 0.00 | 0.00 | 38 | 1032.3 |
| 20260906012216 | 18 | 267 | 3.2 | 9.7 | 0.00 | 0.00 | 0.00 | 38 | 1032.3 |
| 20260906011711 | 18 | 230 | 8.0 | 12.9 | 0.00 | 0.00 | 0.00 | 37 | 1032.0 |
| 20260906011205 | 18 | 246 | 6.4 | 12.9 | 0.00 | 0.00 | 0.00 | 36 | 1032.2 |
| 20260906010701 | 20 | 283 | 11.3 | 22.5 | 0.00 | 0.00 | 0.00 | 34 | 1032.0 |
| 20260906010158 | 20 | 351 | 8.0 | 9.7 | 0.00 | 0.00 | 0.00 | 34 | 1032.2 |
| 20260906005657 | 20 | 241 | 6.4 | 16.1 | 0.00 | 0.00 | 0.00 | 34 | 1032.0 |
| 20260906005156 | 21 | 236 | 9.7 | 22.5 | 0.00 | 0.00 | 0.00 | 34 | 1032.0 |
| 20260906004655 | 21 | 242 | 8.0 | 17.7 | 0.00 | 0.00 | 0.00 | 33 | 1032.2 |
| 20260906004150 | 21 | 322 | 9.7 | 20.9 | 0.00 | 0.00 | 0.00 | 33 | 1031.8 |
| 20260906003646 | 21 | 267 | 20.9 | 20.9 | 0.00 | 0.00 | 0.00 | 32 | 1032.0 |
| 20260906003141 | 22 | 280 | 3.2 | 19.3 | 0.00 | 0.00 | 0.00 | 33 | 1031.9 |
| 20260906002636 | 22 | 288 | 9.7 | 16.1 | 0.00 | 0.00 | 0.00 | 33 | 1031.9 |
| 20260906002131 | 21 | 264 | 12.9 | 22.5 | 0.00 | 0.00 | 0.00 | 33 | 1031.8 |
| 20260906001626 | 22 | 260 | 11.3 | 19.3 | 0.00 | 0.00 | 0.00 | 33 | 1031.8 |
| 20260906001126 | 21 | 329 | 8.0 | 20.9 | 0.00 | 0.00 | 0.00 | 34 | 1031.8 |
| 20260906000622 | 21 | 321 | 14.5 | 33.8 | 0.00 | 0.00 | 0.00 | 34 | 1031.6 |
| 20260906000117 | 22 | 221 | 3.2 | 20.9 | 0.00 | 0.00 | 0.00 | 33 | 1031.5 |
| 20260905235616 | 22 | 232 | 20.9 | 20.9 | 0.00 | 0.00 | 0.00 | 34 | 1031.8 |
| 20260905235111 | 22 | 288 | 19.3 | 35.4 | 0.00 | 0.00 | 0.00 | 34 | 1031.6 |
| 20260905234606 | 23 | 248 | 8.0 | 19.3 | 0.00 | 0.00 | 0.00 | 33 | 1031.5 |
| 20260905234102 | 23 | 236 | 24.1 | 24.1 | 0.00 | 0.00 | 0.00 | 32 | 1031.5 |